Time;durP1;ratioP1;P1;durP2;ratioP2;P2;SDS_P1;SDS_P2;PMS_P1;PMS_P2;Temp;Humidity;BMP_temperature;BMP_pressure;BME280_temperature;BME280_humidity;BME280_pressure;Samples;Min_cycle;Max_cycle;Signal;HPM_P1;HPM_P2
2022/06/30 00:01:26;;;;;;;7.78;6.13;;;19.90;99.90;;;;;;4791086;29;20048;-69
2022/06/30 00:03:51;;;;;;;6.05;5.55;;;19.80;99.90;;;;;;4782388;29;20055;-70
2022/06/30 00:06:17;;;;;;;6.40;5.80;;;19.80;99.90;;;;;;4791871;29;20061;-70
2022/06/30 00:08:43;;;;;;;5.60;5.05;;;19.70;99.90;;;;;;4789777;29;20129;-70
2022/06/30 00:11:08;;;;;;;6.15;5.65;;;19.70;99.90;;;;;;4791485;29;20055;-70
2022/06/30 00:13:35;;;;;;;6.10;5.50;;;19.60;99.90;;;;;;4790526;29;20047;-69
2022/06/30 00:16:01;;;;;;;5.80;5.30;;;19.60;99.90;;;;;;4790319;29;20067;-69
2022/06/30 00:18:27;;;;;;;5.95;5.45;;;19.60;99.90;;;;;;4790424;29;20065;-71
2022/06/30 00:20:53;;;;;;;6.03;4.90;;;19.60;99.90;;;;;;4791224;29;20055;-69
2022/06/30 00:23:18;;;;;;;6.00;5.50;;;19.50;99.90;;;;;;4788592;29;20054;-70
2022/06/30 00:25:44;;;;;;;5.70;5.18;;;19.50;99.90;;;;;;4801852;29;20412;-70
2022/06/30 00:28:10;;;;;;;5.47;4.85;;;19.40;99.90;;;;;;4807534;29;20058;-70
2022/06/30 00:30:35;;;;;;;5.93;5.20;;;19.40;99.90;;;;;;4790561;29;20099;-70
2022/06/30 00:33:01;;;;;;;5.68;5.18;;;19.30;99.90;;;;;;4787089;29;20622;-71
2022/06/30 00:35:27;;;;;;;6.45;5.13;;;19.20;99.90;;;;;;4806158;29;20508;-69
2022/06/30 00:37:52;;;;;;;5.07;4.68;;;19.20;99.90;;;;;;4788146;29;20429;-69
2022/06/30 00:40:18;;;;;;;5.88;4.82;;;19.10;99.90;;;;;;4775516;29;20112;-72
2022/06/30 00:42:44;;;;;;;5.38;4.93;;;19.10;99.90;;;;;;4790852;29;20470;-69
2022/06/30 00:45:10;;;;;;;6.20;4.57;;;19.00;99.90;;;;;;4790860;29;20086;-68
2022/06/30 00:47:36;;;;;;;5.65;5.10;;;19.10;99.90;;;;;;4788861;29;20465;-72
2022/06/30 00:50:02;;;;;;;8.25;5.40;;;19.00;99.90;;;;;;4789531;29;20062;-70
2022/06/30 00:52:30;;;;;;;5.55;5.00;;;18.90;99.90;;;;;;4790696;29;20054;-70
2022/06/30 00:54:57;;;;;;;5.25;4.75;;;18.90;99.90;;;;;;4788932;29;20111;-70
2022/06/30 00:57:24;;;;;;;6.18;4.90;;;18.90;99.90;;;;;;4773035;30;20490;-71
2022/06/30 00:59:53;;;;;;;5.65;5.10;;;18.80;99.90;;;;;;4787581;29;20063;-72
2022/06/30 01:02:19;;;;;;;4.97;4.57;;;18.80;99.90;;;;;;4796152;29;20150;-71
2022/06/30 01:04:51;;;;;;;5.32;4.82;;;18.80;99.90;;;;;;4775301;30;20059;-69
2022/06/30 01:07:19;;;;;;;5.30;4.20;;;18.70;99.90;;;;;;4789486;29;20063;-69
2022/06/30 01:12:42;;;;;;;5.93;4.53;;;18.70;99.90;;;;;;4790232;29;20073;-71
2022/06/30 01:15:08;;;;;;;5.85;4.70;;;18.70;99.90;;;;;;4778456;29;20055;-71
2022/06/30 01:17:34;;;;;;;4.60;4.20;;;18.70;99.90;;;;;;4801131;29;20142;-69
2022/06/30 01:20:00;;;;;;;5.47;4.78;;;18.70;99.90;;;;;;4789471;29;20141;-72
2022/06/30 01:22:26;;;;;;;5.05;4.57;;;18.60;99.90;;;;;;4784952;29;20086;-70
2022/06/30 01:24:51;;;;;;;5.57;5.07;;;18.60;99.90;;;;;;4799082;29;20059;-72
2022/06/30 01:27:18;;;;;;;5.40;4.20;;;18.60;99.90;;;;;;4786808;29;20050;-70
2022/06/30 01:29:44;;;;;;;4.95;4.13;;;18.60;99.90;;;;;;4794202;29;20047;-71
2022/06/30 01:32:10;;;;;;;4.90;4.40;;;18.50;99.90;;;;;;4787580;29;20062;-68
2022/06/30 01:34:36;;;;;;;5.35;4.22;;;18.50;99.90;;;;;;4789670;29;20050;-70
2022/06/30 01:37:02;;;;;;;4.95;4.55;;;18.50;99.90;;;;;;4786957;29;20130;-69
2022/06/30 01:39:27;;;;;;;4.97;4.47;;;18.50;99.90;;;;;;4788558;30;20142;-70
2022/06/30 01:41:53;;;;;;;7.38;5.15;;;18.50;99.90;;;;;;4786517;29;20585;-71
2022/06/30 01:44:19;;;;;;;5.22;4.68;;;18.50;99.90;;;;;;4790423;29;20090;-71
2022/06/30 01:46:48;;;;;;;6.18;4.45;;;18.50;99.90;;;;;;4774207;29;20055;-70
2022/06/30 01:49:15;;;;;;;4.72;4.30;;;18.50;99.90;;;;;;4805119;29;20063;-69
2022/06/30 01:51:40;;;;;;;5.20;4.70;;;18.40;99.90;;;;;;4789180;29;20055;-70
2022/06/30 01:54:08;;;;;;;4.80;4.45;;;18.40;99.90;;;;;;4786864;29;20066;-69
2022/06/30 01:56:34;;;;;;;5.18;4.28;;;18.40;99.90;;;;;;4806208;29;20562;-70
2022/06/30 01:59:00;;;;;;;4.90;4.50;;;18.40;99.90;;;;;;4790488;29;20390;-69
2022/06/30 02:01:26;;;;;;;6.53;4.53;;;18.40;99.90;;;;;;4789440;29;20061;-68
2022/06/30 02:03:51;;;;;;;5.05;4.50;;;18.40;99.90;;;;;;4804371;29;20415;-69
2022/06/30 02:06:17;;;;;;;5.32;4.82;;;18.40;99.90;;;;;;4789351;29;20089;-70
2022/06/30 02:08:43;;;;;;;6.28;4.68;;;18.40;99.90;;;;;;4786408;30;20057;-70
2022/06/30 02:11:08;;;;;;;5.05;4.65;;;18.40;99.90;;;;;;4787742;30;20055;-73
2022/06/30 02:13:34;;;;;;;4.60;4.13;;;18.30;99.90;;;;;;4786343;29;20054;-70
2022/06/30 02:16:00;;;;;;;6.75;4.90;;;18.30;99.90;;;;;;4787558;29;20059;-70
2022/06/30 02:18:25;;;;;;;5.45;4.50;;;18.40;99.90;;;;;;4778326;29;20133;-68
2022/06/30 02:20:51;;;;;;;5.70;4.50;;;18.20;99.90;;;;;;4794045;29;20142;-69
2022/06/30 02:23:17;;;;;;;5.30;4.82;;;18.20;99.90;;;;;;4786446;30;20154;-70
2022/06/30 02:25:42;;;;;;;5.25;4.75;;;18.20;99.90;;;;;;4786290;29;20070;-69
2022/06/30 02:28:08;;;;;;;5.30;4.80;;;18.10;99.90;;;;;;4802605;29;20378;-69
2022/06/30 02:30:35;;;;;;;4.90;4.50;;;18.10;99.90;;;;;;4789015;29;20162;-70
2022/06/30 02:33:01;;;;;;;5.30;4.80;;;18.10;99.90;;;;;;4785606;29;20070;-68
2022/06/30 02:35:26;;;;;;;5.35;4.85;;;18.00;99.90;;;;;;4782458;29;20174;-71
2022/06/30 02:37:53;;;;;;;5.53;4.60;;;18.00;99.90;;;;;;4788303;29;20138;-68
2022/06/30 02:40:19;;;;;;;5.00;4.60;;;18.00;99.90;;;;;;4789671;29;20409;-71
2022/06/30 02:42:45;;;;;;;5.32;4.45;;;18.00;99.90;;;;;;4789512;29;20069;-70
2022/06/30 02:45:11;;;;;;;5.22;4.50;;;17.90;99.90;;;;;;4787806;29;20390;-71
2022/06/30 02:47:39;;;;;;;7.35;4.72;;;17.90;99.90;;;;;;4772790;30;20130;-71
2022/06/30 02:50:07;;;;;;;5.03;4.45;;;17.90;99.90;;;;;;4786176;29;20573;-68
2022/06/30 02:52:35;;;;;;;5.70;5.07;;;17.80;99.90;;;;;;4797364;29;20066;-69
2022/06/30 02:55:01;;;;;;;5.80;4.90;;;17.80;99.90;;;;;;4786337;29;20142;-68
2022/06/30 02:57:27;;;;;;;5.38;4.88;;;17.80;99.90;;;;;;4788459;29;20073;-70
2022/06/30 02:59:53;;;;;;;5.68;5.18;;;17.80;99.90;;;;;;4775054;29;20060;-69
2022/06/30 03:02:18;;;;;;;5.75;5.25;;;17.80;99.90;;;;;;4805153;29;20076;-70
2022/06/30 03:04:44;;;;;;;5.72;5.22;;;17.80;99.90;;;;;;4785607;29;20140;-70
2022/06/30 03:07:10;;;;;;;9.27;4.93;;;17.80;99.90;;;;;;4774428;30;20489;-69
2022/06/30 03:09:35;;;;;;;5.32;4.75;;;17.70;99.90;;;;;;4774979;30;20051;-71
2022/06/30 03:12:01;;;;;;;6.82;4.78;;;17.70;99.90;;;;;;4776387;29;20409;-70
2022/06/30 03:14:27;;;;;;;4.82;4.43;;;17.70;99.90;;;;;;4792555;29;20146;-71
2022/06/30 03:16:53;;;;;;;4.97;4.38;;;17.70;99.90;;;;;;4774754;30;20059;-70
2022/06/30 03:19:19;;;;;;;5.32;4.82;;;17.70;99.90;;;;;;4789358;30;20569;-71
2022/06/30 03:21:45;;;;;;;4.80;4.40;;;17.60;99.90;;;;;;4789533;30;20412;-71
2022/06/30 03:24:10;;;;;;;5.20;4.70;;;17.60;99.90;;;;;;4801649;29;20052;-72
2022/06/30 03:26:36;;;;;;;5.15;4.75;;;17.60;99.90;;;;;;4804947;29;20051;-70
2022/06/30 03:29:06;;;;;;;5.10;4.70;;;17.60;99.90;;;;;;4774297;29;20450;-71
2022/06/30 03:31:32;;;;;;;6.53;4.60;;;17.70;99.90;;;;;;4787311;29;20476;-72
2022/06/30 03:33:58;;;;;;;5.13;4.68;;;17.70;99.90;;;;;;4790042;29;20059;-69
2022/06/30 03:36:23;;;;;;;4.40;4.00;;;17.70;99.90;;;;;;4792585;29;20519;-70
2022/06/30 03:38:49;;;;;;;5.40;4.90;;;17.70;99.90;;;;;;4791939;29;20103;-69
2022/06/30 03:41:15;;;;;;;4.53;4.07;;;17.60;99.90;;;;;;4792875;29;20136;-69
2022/06/30 03:43:40;;;;;;;5.18;4.68;;;17.60;99.90;;;;;;4775762;29;20092;-71
2022/06/30 03:46:06;;;;;;;4.35;3.85;;;17.70;99.90;;;;;;4795328;29;20062;-68
2022/06/30 03:48:31;;;;;;;5.32;4.82;;;17.60;99.90;;;;;;4788645;30;20130;-69
2022/06/30 03:50:57;;;;;;;6.65;4.70;;;17.70;99.90;;;;;;4789959;29;20432;-72
2022/06/30 03:53:22;;;;;;;5.40;4.90;;;17.70;99.90;;;;;;4797412;29;20130;-69
2022/06/30 03:55:48;;;;;;;5.50;5.00;;;17.70;99.90;;;;;;4774163;30;20051;-69
2022/06/30 03:58:14;;;;;;;7.47;5.13;;;17.70;99.90;;;;;;4802712;29;20067;-71
2022/06/30 04:00:39;;;;;;;6.15;4.93;;;17.60;99.90;;;;;;4789475;29;20055;-70
2022/06/30 04:03:05;;;;;;;5.15;3.85;;;17.70;99.90;;;;;;4790897;29;20058;-71
2022/06/30 04:05:31;;;;;;;5.47;4.80;;;17.70;99.90;;;;;;4791637;29;20047;-69
2022/06/30 04:07:57;;;;;;;4.80;4.40;;;17.70;99.90;;;;;;4806821;29;20133;-73
2022/06/30 04:10:22;;;;;;;4.78;4.38;;;17.70;99.90;;;;;;4792006;29;20047;-69
2022/06/30 04:12:48;;;;;;;4.93;4.53;;;17.70;99.90;;;;;;4805451;29;20133;-70
2022/06/30 04:15:14;;;;;;;4.78;4.22;;;17.80;99.90;;;;;;4806184;29;20164;-71
2022/06/30 04:17:39;;;;;;;6.32;5.00;;;17.70;99.90;;;;;;4791603;29;20058;-71
2022/06/30 04:20:15;;;;;;;5.00;4.60;;;17.70;99.90;;;;;;4791508;29;20111;-70
2022/06/30 04:22:52;;;;;;;6.38;4.63;;;17.80;99.90;;;;;;4807636;29;20091;-70
2022/06/30 04:25:18;;;;;;;4.72;4.32;;;17.80;99.90;;;;;;4791791;29;20104;-70
2022/06/30 04:27:46;;;;;;;7.15;4.70;;;17.80;99.90;;;;;;4781125;29;20050;-71
2022/06/30 04:30:13;;;;;;;8.85;5.07;;;17.80;99.90;;;;;;4790078;29;20090;-70
2022/06/30 04:32:38;;;;;;;5.30;4.70;;;17.90;99.90;;;;;;4790880;29;20066;-71
2022/06/30 04:35:09;;;;;;;5.28;4.78;;;17.90;99.90;;;;;;4791339;29;20059;-71
2022/06/30 04:37:35;;;;;;;5.40;4.95;;;17.90;99.90;;;;;;4791670;29;20412;-70
2022/06/30 04:42:45;;;;;;;5.13;4.50;;;18.00;99.90;;;;;;4782348;29;20142;-70
2022/06/30 04:45:11;;;;;;;5.43;4.97;;;18.10;99.90;;;;;;4773089;30;20204;-71
2022/06/30 04:47:37;;;;;;;4.95;4.55;;;18.10;99.90;;;;;;4787818;29;20112;-70
2022/06/30 04:50:04;;;;;;;5.35;4.85;;;18.20;99.90;;;;;;4788126;29;20063;-68
2022/06/30 04:52:30;;;;;;;5.78;5.00;;;18.30;99.90;;;;;;4789257;29;20480;-71
2022/06/30 04:54:56;;;;;;;6.57;5.47;;;18.30;99.90;;;;;;4788590;29;20485;-70
2022/06/30 04:57:21;;;;;;;5.72;5.05;;;18.30;99.90;;;;;;4802843;29;20058;-70
2022/06/30 04:59:47;;;;;;;5.10;4.70;;;18.50;99.90;;;;;;4776448;29;20062;-69
2022/06/30 05:02:12;;;;;;;8.18;5.20;;;18.40;99.90;;;;;;4788864;29;20413;-70
2022/06/30 05:04:48;;;;;;;5.75;5.13;;;18.40;99.90;;;;;;4790033;29;20047;-69
2022/06/30 05:07:13;;;;;;;5.90;5.03;;;18.40;99.90;;;;;;4775493;29;20050;-70
2022/06/30 05:09:39;;;;;;;5.93;5.38;;;18.60;99.90;;;;;;4788127;29;20117;-69
2022/06/30 05:12:05;;;;;;;5.97;4.90;;;18.50;99.90;;;;;;4769360;29;20123;-70
2022/06/30 05:14:31;;;;;;;5.85;4.82;;;18.50;99.90;;;;;;4799238;29;20105;-69
2022/06/30 05:16:56;;;;;;;5.45;4.95;;;18.50;99.90;;;;;;4790533;29;20090;-72
2022/06/30 05:19:22;;;;;;;5.90;5.40;;;18.60;99.90;;;;;;4785276;29;20631;-71
2022/06/30 05:21:47;;;;;;;5.82;5.40;;;18.60;99.90;;;;;;4786728;29;20089;-70
2022/06/30 05:26:58;;;;;;;6.00;4.88;;;18.80;99.90;;;;;;4781035;29;20075;-71
2022/06/30 05:29:24;;;;;;;5.72;5.13;;;18.80;99.90;;;;;;4796012;29;20093;-71
2022/06/30 05:32:14;;;;;;;5.90;4.97;;;19.00;99.90;;;;;;4785441;29;20062;-73
2022/06/30 05:34:40;;;;;;;6.05;5.53;;;19.50;99.90;;;;;;4783328;29;20467;-70
2022/06/30 05:37:06;;;;;;;5.70;5.20;;;20.60;99.90;;;;;;4770318;29;20054;-70
2022/06/30 05:39:33;;;;;;;5.65;5.15;;;21.60;99.90;;;;;;4799583;29;20040;-70
2022/06/30 05:42:01;;;;;;;5.75;5.25;;;22.40;99.90;;;;;;4804940;29;20054;-71
2022/06/30 05:44:29;;;;;;;5.95;5.40;;;23.00;99.90;;;;;;4787666;29;20059;-71
2022/06/30 05:46:55;;;;;;;8.57;5.10;;;23.80;99.90;;;;;;4783745;29;20137;-71
2022/06/30 05:49:25;;;;;;;5.68;5.18;;;24.20;99.90;;;;;;4804691;29;20051;-71
2022/06/30 05:51:51;;;;;;;6.13;5.55;;;24.50;99.90;;;;;;4807197;29;20059;-70
2022/06/30 05:54:18;;;;;;;5.45;4.95;;;25.00;99.90;;;;;;4788807;29;20443;-70
2022/06/30 05:56:45;;;;;;;5.38;4.88;;;25.20;99.90;;;;;;4788913;29;20066;-70
2022/06/30 05:59:11;;;;;;;5.93;5.32;;;25.50;99.90;;;;;;4798316;29;20055;-67
2022/06/30 06:01:37;;;;;;;6.20;5.22;;;25.60;99.90;;;;;;4800823;29;20577;-71
2022/06/30 06:04:03;;;;;;;5.40;4.90;;;25.70;99.90;;;;;;4814793;29;20488;-69
2022/06/30 06:06:29;;;;;;;6.25;5.38;;;26.00;99.90;;;;;;4773254;29;20481;-70
2022/06/30 06:08:54;;;;;;;7.38;5.85;;;26.00;99.90;;;;;;4788497;29;20061;-71
2022/06/30 06:11:20;;;;;;;6.43;4.68;;;25.90;99.90;;;;;;4803158;29;20090;-69
2022/06/30 06:13:45;;;;;;;5.63;5.13;;;26.00;99.90;;;;;;4789389;29;20510;-69
2022/06/30 06:16:11;;;;;;;6.70;6.00;;;25.90;99.90;;;;;;4789357;29;20062;-69
2022/06/30 06:18:37;;;;;;;5.53;5.03;;;26.00;99.90;;;;;;4788292;29;20513;-70
2022/06/30 06:21:03;;;;;;;6.07;5.45;;;26.00;99.90;;;;;;4797811;29;20086;-69
2022/06/30 06:23:28;;;;;;;5.60;5.10;;;26.00;99.90;;;;;;4778743;29;20101;-68
2022/06/30 06:25:54;;;;;;;6.10;5.55;;;26.20;99.90;;;;;;4780490;29;20054;-71
2022/06/30 06:31:03;;;;;;;6.35;5.40;;;26.30;99.90;;;;;;4788764;29;20133;-71
2022/06/30 06:33:29;;;;;;;6.05;5.55;;;26.60;99.90;;;;;;4788152;29;20130;-74
2022/06/30 06:35:55;;;;;;;7.63;5.50;;;26.80;99.90;;;;;;4789996;29;20058;-69
2022/06/30 06:38:21;;;;;;;6.35;5.40;;;26.80;99.90;;;;;;4789260;29;20461;-71
2022/06/30 06:40:46;;;;;;;6.13;5.45;;;26.70;99.90;;;;;;4786961;29;20567;-72
2022/06/30 06:43:12;;;;;;;6.28;5.78;;;26.70;99.90;;;;;;4787945;29;20509;-71
2022/06/30 06:45:38;;;;;;;6.00;5.05;;;26.10;99.90;;;;;;4785809;29;20087;-67
2022/06/30 06:48:03;;;;;;;6.00;5.32;;;25.40;99.90;;;;;;4777613;30;20055;-68
2022/06/30 06:50:29;;;;;;;5.72;5.22;;;24.90;99.90;;;;;;4792424;29;20059;-69
2022/06/30 06:52:55;;;;;;;7.15;5.45;;;24.50;99.90;;;;;;4789423;29;20059;-69
2022/06/30 06:55:21;;;;;;;6.43;5.93;;;24.10;99.90;;;;;;4788092;29;20062;-68
2022/06/30 06:57:48;;;;;;;5.97;5.40;;;23.80;99.90;;;;;;4773993;29;20404;-71
2022/06/30 07:00:13;;;;;;;6.20;5.60;;;23.50;99.90;;;;;;4778711;29;20128;-72
2022/06/30 07:02:40;;;;;;;6.10;5.28;;;23.30;99.90;;;;;;4775742;30;20467;-70
2022/06/30 07:05:07;;;;;;;7.45;6.45;;;23.30;99.90;;;;;;4771494;30;20063;-70
2022/06/30 07:07:33;;;;;;;6.43;5.63;;;23.40;99.90;;;;;;4771301;30;20063;-73
2022/06/30 07:11:05;;;;;;;;;;;;;;;;;;;;;
2022/06/30 07:14:37;;;;;;;;;;;;;;;;;;;;;
2022/06/30 07:21:04;;;;;;;7.07;6.40;;;23.90;99.90;;;;;;4694106;30;20472;-69
2022/06/30 07:23:30;;;;;;;6.57;6.07;;;23.90;99.90;;;;;;4744747;30;20059;-70
2022/06/30 07:25:56;;;;;;;6.93;6.32;;;23.90;99.90;;;;;;4803135;29;20050;-71
2022/06/30 07:28:21;;;;;;;8.27;6.32;;;24.00;99.90;;;;;;4797310;29;20111;-70
2022/06/30 07:30:47;;;;;;;7.35;6.57;;;24.10;99.90;;;;;;4782504;29;20048;-71
2022/06/30 07:33:12;;;;;;;7.93;7.22;;;24.20;99.90;;;;;;4775678;30;20516;-70
2022/06/30 07:35:38;;;;;;;7.30;6.68;;;24.20;99.90;;;;;;4775859;29;20060;-70
2022/06/30 07:38:04;;;;;;;8.55;6.63;;;24.30;99.90;;;;;;4783771;30;20594;-71
2022/06/30 07:40:29;;;;;;;7.40;6.80;;;24.30;99.90;;;;;;4779690;29;20050;-71
2022/06/30 07:42:55;;;;;;;6.75;6.15;;;24.40;99.90;;;;;;4764271;30;20498;-70
2022/06/30 07:45:22;;;;;;;7.72;6.97;;;24.50;99.90;;;;;;4779719;30;20126;-72
2022/06/30 07:47:49;;;;;;;8.35;7.07;;;24.70;99.90;;;;;;4780651;29;20051;-73
2022/06/30 07:50:17;;;;;;;7.82;7.03;;;24.70;99.90;;;;;;4786402;29;20486;-72
2022/06/30 07:52:43;;;;;;;7.00;6.35;;;24.80;99.90;;;;;;4788927;29;20059;-72
2022/06/30 07:55:09;;;;;;;7.78;6.85;;;24.90;99.90;;;;;;4788051;30;20055;-71
2022/06/30 07:57:42;;;;;;;7.80;7.10;;;25.10;99.90;;;;;;4788752;30;20048;-72
2022/06/30 08:00:10;;;;;;;8.45;7.57;;;25.10;99.90;;;;;;4785055;30;20482;-72
2022/06/30 08:02:36;;;;;;;9.65;7.10;;;25.20;99.90;;;;;;4788329;29;20166;-70
2022/06/30 08:05:02;;;;;;;8.55;7.82;;;25.30;99.90;;;;;;4788812;30;20528;-72
2022/06/30 08:07:31;;;;;;;9.10;8.20;;;25.40;99.90;;;;;;4787510;29;20067;-71
2022/06/30 08:09:56;;;;;;;8.75;8.02;;;25.50;99.90;;;;;;4788928;30;20524;-71
2022/06/30 08:12:23;;;;;;;9.68;7.72;;;25.50;99.90;;;;;;4788497;29;20071;-70
2022/06/30 08:14:48;;;;;;;10.20;9.20;;;25.50;99.90;;;;;;4768552;30;20085;-71
2022/06/30 08:17:14;;;;;;;9.48;8.63;;;25.40;99.90;;;;;;4770187;30;20079;-71
2022/06/30 08:19:41;;;;;;;9.45;8.65;;;25.50;99.90;;;;;;4786956;29;20062;-72
2022/06/30 08:22:07;;;;;;;9.70;8.90;;;25.50;99.90;;;;;;4784852;29;20191;-69
2022/06/30 08:24:33;;;;;;;9.57;8.77;;;25.60;99.90;;;;;;4807744;29;20063;-72
2022/06/30 08:27:02;;;;;;;9.75;8.52;;;25.70;99.90;;;;;;4776375;29;20054;-69
2022/06/30 08:29:34;;;;;;;9.23;8.45;;;25.60;99.90;;;;;;4807729;29;20054;-68
2022/06/30 08:32:06;;;;;;;10.57;8.75;;;26.00;99.90;;;;;;4790537;29;20528;-69
2022/06/30 08:34:32;;;;;;;9.65;8.75;;;26.10;99.90;;;;;;4785885;29;20059;-68
2022/06/30 08:36:58;;;;;;;11.80;10.60;;;26.20;99.90;;;;;;4782641;29;20111;-72
2022/06/30 08:42:10;;;;;;;10.88;9.68;;;26.20;99.90;;;;;;4782956;29;20043;-70
2022/06/30 08:44:37;;;;;;;11.00;10.00;;;26.20;99.90;;;;;;4785436;29;20043;-70
2022/06/30 08:47:04;;;;;;;10.70;9.55;;;26.20;99.90;;;;;;4790284;29;20112;-69
2022/06/30 08:49:30;;;;;;;10.55;9.65;;;26.40;99.90;;;;;;4791162;29;20082;-69
2022/06/30 08:51:58;;;;;;;11.90;10.52;;;26.50;99.90;;;;;;4783483;29;20154;-70
2022/06/30 08:54:26;;;;;;;10.07;9.15;;;26.60;99.90;;;;;;4781765;29;20065;-70
2022/06/30 08:56:54;;;;;;;11.55;10.55;;;26.70;99.90;;;;;;4783027;29;20500;-69
2022/06/30 08:59:22;;;;;;;10.75;9.80;;;26.70;99.90;;;;;;4798040;29;20426;-68
2022/06/30 09:01:48;;;;;;;12.25;10.50;;;26.70;99.90;;;;;;4781811;29;20054;-70
2022/06/30 09:04:14;;;;;;;10.43;9.52;;;26.90;99.90;;;;;;4777742;29;20083;-70
2022/06/30 09:06:44;;;;;;;11.55;10.50;;;26.90;99.90;;;;;;4784065;29;20473;-70
2022/06/30 09:09:10;;;;;;;10.50;9.65;;;27.00;99.90;;;;;;4790557;29;20532;-71
2022/06/30 09:11:56;;;;;;;12.30;11.00;;;27.10;99.90;;;;;;4800325;29;20104;-69
2022/06/30 09:14:31;;;;;;;12.43;10.52;;;27.10;99.90;;;;;;4789018;29;20059;-69
2022/06/30 09:16:58;;;;;;;10.82;9.93;;;27.10;99.90;;;;;;4788269;29;20067;-68
2022/06/30 09:19:23;;;;;;;12.10;11.07;;;27.20;99.90;;;;;;4787081;29;20055;-69
2022/06/30 09:22:07;;;;;;;11.05;10.05;;;27.30;99.90;;;;;;4806484;29;20100;-71
2022/06/30 09:24:33;;;;;;;12.48;11.23;;;27.30;99.90;;;;;;4806938;29;20082;-69
2022/06/30 09:27:21;;;;;;;12.23;11.32;;;27.40;99.90;;;;;;4806478;29;20106;-71
2022/06/30 09:29:49;;;;;;;13.52;11.13;;;27.50;99.90;;;;;;4806795;29;20054;-71
2022/06/30 09:32:15;;;;;;;12.93;11.80;;;27.50;99.90;;;;;;4795659;29;20169;-71
2022/06/30 09:34:42;;;;;;;11.80;10.75;;;27.40;99.90;;;;;;4781517;29;20149;-71
2022/06/30 09:37:22;;;;;;;13.25;12.02;;;27.50;99.90;;;;;;4797807;29;20051;-70
2022/06/30 09:39:50;;;;;;;11.77;10.77;;;27.60;99.90;;;;;;4804035;29;20116;-71
2022/06/30 09:42:37;;;;;;;10.77;9.88;;;27.70;99.90;;;;;;4795935;29;20451;-71
2022/06/30 09:45:04;;;;;;;10.63;9.75;;;27.80;99.90;;;;;;4781969;29;20047;-70
2022/06/30 09:47:30;;;;;;;9.77;8.88;;;27.90;99.90;;;;;;4789872;29;20392;-72
2022/06/30 09:50:02;;;;;;;9.15;8.35;;;27.90;99.90;;;;;;4789783;29;20137;-70
2022/06/30 09:52:28;;;;;;;9.82;8.93;;;28.00;99.90;;;;;;4805451;29;20127;-70
2022/06/30 09:55:03;;;;;;;9.75;8.85;;;28.00;99.90;;;;;;4798210;29;20501;-72
2022/06/30 09:57:31;;;;;;;9.75;8.90;;;28.10;99.90;;;;;;4780066;29;20150;-71
2022/06/30 10:00:05;;;;;;;9.02;8.20;;;28.20;99.90;;;;;;4778160;29;20112;-71
2022/06/30 10:02:34;;;;;;;8.80;8.10;;;28.30;99.90;;;;;;4795104;29;20102;-71
2022/06/30 10:05:01;;;;;;;10.27;9.10;;;28.40;99.90;;;;;;4797616;29;20074;-72
2022/06/30 10:07:27;;;;;;;8.93;8.07;;;28.50;99.90;;;;;;4786949;29;20562;-72
2022/06/30 10:09:53;;;;;;;9.50;8.63;;;28.50;99.90;;;;;;4789906;29;20047;-70
2022/06/30 10:12:20;;;;;;;10.63;8.55;;;28.50;99.90;;;;;;4804848;29;20050;-72
2022/06/30 10:14:48;;;;;;;10.18;9.23;;;28.50;99.90;;;;;;4784733;29;20139;-71
2022/06/30 10:17:26;;;;;;;9.82;8.93;;;28.50;99.90;;;;;;4789327;29;20110;-69
2022/06/30 10:19:52;;;;;;;10.43;9.43;;;28.50;99.20;;;;;;4802732;29;20158;-70
2022/06/30 10:22:22;;;;;;;10.90;9.38;;;28.50;99.90;;;;;;4788027;29;20075;-70
2022/06/30 10:24:49;;;;;;;9.07;8.18;;;28.50;99.90;;;;;;4800437;29;20058;-70
2022/06/30 10:27:15;;;;;;;8.68;7.93;;;28.60;99.90;;;;;;4805907;29;20408;-71
2022/06/30 10:29:57;;;;;;;9.13;8.25;;;28.70;99.90;;;;;;4774503;29;20070;-71
2022/06/30 10:32:44;;;;;;;9.52;8.73;;;28.80;99.90;;;;;;4785277;29;20493;-71
2022/06/30 10:35:35;;;;;;;9.15;8.25;;;28.90;96.30;;;;;;4805629;29;20062;-71
2022/06/30 10:38:27;;;;;;;8.60;7.85;;;28.90;91.60;;;;;;4805179;29;20076;-71
2022/06/30 10:40:59;;;;;;;9.20;8.30;;;28.90;99.90;;;;;;4802165;29;20564;-70
2022/06/30 10:43:25;;;;;;;8.23;7.63;;;28.90;92.50;;;;;;4773530;29;20055;-70
2022/06/30 10:45:53;;;;;;;8.38;7.55;;;28.90;97.10;;;;;;4806021;29;20540;-70
2022/06/30 10:48:19;;;;;;;9.95;9.05;;;28.90;94.80;;;;;;4804027;29;20134;-70
2022/06/30 10:50:45;;;;;;;11.25;9.98;;;28.80;97.20;;;;;;4802736;29;20062;-70
2022/06/30 10:53:16;;;;;;;10.32;9.35;;;28.60;98.60;;;;;;4783726;29;20058;-71
2022/06/30 10:55:54;;;;;;;9.65;8.75;;;28.40;99.90;;;;;;4766354;29;20054;-72
2022/06/30 10:58:21;;;;;;;9.30;8.38;;;28.30;97.60;;;;;;4795413;29;20505;-71
2022/06/30 11:01:07;;;;;;;8.85;8.05;;;28.30;99.90;;;;;;4797061;29;20047;-70
2022/06/30 11:03:33;;;;;;;7.22;6.50;;;28.40;99.00;;;;;;4792703;29;20160;-71
2022/06/30 11:06:05;;;;;;;5.85;5.35;;;28.50;97.50;;;;;;4788191;29;20566;-72
2022/06/30 11:11:24;;;;;;;5.22;4.60;;;28.60;94.30;;;;;;4780586;29;20486;-72
2022/06/30 11:14:10;;;;;;;5.32;4.82;;;28.50;93.00;;;;;;4800613;29;20059;-71
2022/06/30 11:16:38;;;;;;;11.80;7.97;;;28.40;92.70;;;;;;4783675;29;20050;-70
2022/06/30 11:19:12;;;;;;;8.90;7.80;;;28.40;92.20;;;;;;4806390;29;20423;-70
2022/06/30 11:21:45;;;;;;;7.38;6.78;;;28.50;93.00;;;;;;4790810;29;20150;-69
2022/06/30 11:24:14;;;;;;;8.73;6.18;;;28.50;92.30;;;;;;4808463;29;20086;-72
2022/06/30 11:29:26;;;;;;;8.27;7.03;;;28.80;92.10;;;;;;4784494;29;20051;-71
2022/06/30 11:31:58;;;;;;;8.30;7.00;;;28.70;93.30;;;;;;4781497;29;20053;-70
2022/06/30 11:34:24;;;;;;;7.65;6.95;;;28.70;91.80;;;;;;4799528;29;20082;-70
2022/06/30 11:36:50;;;;;;;6.68;6.13;;;28.70;89.90;;;;;;4783751;29;20071;-72
2022/06/30 11:39:28;;;;;;;7.00;5.65;;;28.60;89.70;;;;;;4799643;29;20073;-69
2022/06/30 11:42:06;;;;;;;7.53;5.97;;;28.70;82.40;;;;;;4797114;29;20085;-70
2022/06/30 11:44:38;;;;;;;11.88;6.28;;;28.70;84.40;;;;;;4790432;30;20051;-72
2022/06/30 11:47:10;;;;;;;6.95;6.35;;;28.90;86.30;;;;;;4790097;29;20051;-71
2022/06/30 11:49:53;;;;;;;6.38;5.75;;;29.00;86.30;;;;;;4790121;29;20066;-69
2022/06/30 11:52:20;;;;;;;7.40;5.20;;;29.10;69.10;;;;;;4790115;29;20059;-70
2022/06/30 11:54:51;;;;;;;6.82;5.75;;;29.10;74.30;;;;;;4774373;29;20402;-70
2022/06/30 11:57:18;;;;;;;8.90;6.17;;;29.10;79.80;;;;;;4789827;29;20549;-70
2022/06/30 11:59:49;;;;;;;7.05;5.38;;;29.20;77.10;;;;;;4790159;29;20521;-70
2022/06/30 12:02:16;;;;;;;8.05;5.25;;;29.20;72.60;;;;;;4789543;30;20066;-71
2022/06/30 12:04:43;;;;;;;6.80;4.35;;;29.30;71.60;;;;;;4790213;29;20444;-71
2022/06/30 12:07:13;;;;;;;5.80;3.97;;;29.30;65.70;;;;;;4777053;30;20104;-72
2022/06/30 12:09:41;;;;;;;5.28;4.30;;;29.20;63.30;;;;;;4774019;30;20055;-72
2022/06/30 12:12:08;;;;;;;4.00;3.70;;;29.20;62.80;;;;;;4773848;30;20478;-70
2022/06/30 12:14:36;;;;;;;8.18;4.10;;;29.20;62.30;;;;;;4790348;29;20051;-70
2022/06/30 12:17:04;;;;;;;4.80;4.30;;;29.20;63.60;;;;;;4796346;29;20047;-70
2022/06/30 12:19:30;;;;;;;4.57;3.78;;;29.20;62.20;;;;;;4778787;29;20064;-71
2022/06/30 12:21:56;;;;;;;4.78;4.30;;;29.30;61.40;;;;;;4787335;29;20055;-69
2022/06/30 12:24:23;;;;;;;8.68;4.10;;;29.30;63.70;;;;;;4785459;29;20063;-70
2022/06/30 12:26:55;;;;;;;5.53;3.88;;;29.30;60.50;;;;;;4779204;29;20505;-71
2022/06/30 12:29:21;;;;;;;;;;;29.30;61.70;;;;;;4776094;29;20059;-71
2022/06/30 12:32:05;;;;;;;;;;;29.20;59.10;;;;;;4769792;30;19933;-70
2022/06/30 12:34:31;;;;;;;;;;;29.20;58.70;;;;;;4784309;29;19929;-71
2022/06/30 12:37:03;;;;;;;;;;;29.10;58.90;;;;;;4781872;29;19926;-71
2022/06/30 12:39:32;;;;;;;;;;;29.10;59.90;;;;;;4782224;30;19937;-71
2022/06/30 12:42:05;;;;;;;;;;;29.10;58.60;;;;;;4789735;29;19976;-72
2022/06/30 12:44:31;;;;;;;;;;;29.20;60.10;;;;;;4789719;29;20480;-70
2022/06/30 12:47:02;;;;;;;;;;;29.40;59.70;;;;;;4789278;29;19929;-70
2022/06/30 12:49:27;;;;;;;;;;;29.50;59.00;;;;;;4786323;29;19961;-72
2022/06/30 12:51:53;;;;;;;;;;;29.50;60.30;;;;;;4787100;29;19965;-70
2022/06/30 12:54:23;;;;;;;;;;;29.30;58.10;;;;;;4788863;30;20272;-70
2022/06/30 12:56:51;;;;;;;;;;;29.20;59.90;;;;;;4797317;29;19925;-70
2022/06/30 12:59:18;;;;;;;;;;;29.00;57.80;;;;;;4771740;30;19932;-71
2022/06/30 13:01:52;;;;;;;;;;;28.80;58.50;;;;;;4769731;30;19926;-69
2022/06/30 13:04:20;;;;;;;;;;;28.60;62.70;;;;;;4771563;30;20012;-71
2022/06/30 13:06:46;;;;;;;;;;;28.60;62.50;;;;;;4770435;30;19972;-68
2022/06/30 13:09:13;;;;;;;;;;;28.50;62.00;;;;;;4785155;29;19968;-69
2022/06/30 13:11:42;;;;;;;;;;;28.50;65.40;;;;;;4788350;29;20328;-70
2022/06/30 13:14:08;;;;;;;;;;;28.40;64.00;;;;;;4787925;30;20013;-69
2022/06/30 13:16:33;;;;;;;;;;;28.30;65.50;;;;;;4786946;30;19944;-69
2022/06/30 13:19:00;;;;;;;;;;;28.30;66.90;;;;;;4808003;29;19925;-70
2022/06/30 13:21:26;;;;;;;;;;;28.20;64.70;;;;;;4789624;29;20020;-70